sensor_id;sensor_type;location;lat;lon;timestamp;pressure;altitude;pressure_sealevel;temperature;humidity
60240;BME280;46102;39.012;-7.064;2024-01-07T00:00:58;99089.75;;;5.91;100.00
60240;BME280;46102;39.012;-7.064;2024-01-07T00:02:59;99089.78;;;5.86;100.00
60240;BME280;46102;39.012;-7.064;2024-01-07T00:05:00;99088.41;;;5.83;100.00
60240;BME280;46102;39.012;-7.064;2024-01-07T00:07:03;99084.59;;;5.79;100.00
60240;BME280;46102;39.012;-7.064;2024-01-07T00:09:04;99091.13;;;5.78;100.00
60240;BME280;46102;39.012;-7.064;2024-01-07T00:11:05;99089.22;;;5.79;100.00
60240;BME280;46102;39.012;-7.064;2024-01-07T00:13:05;99086.78;;;5.77;100.00
60240;BME280;46102;39.012;-7.064;2024-01-07T00:15:06;99085.94;;;5.82;100.00
60240;BME280;46102;39.012;-7.064;2024-01-07T00:17:07;99087.59;;;5.78;100.00
60240;BME280;46102;39.012;-7.064;2024-01-07T00:19:08;99088.69;;;5.77;100.00
60240;BME280;46102;39.012;-7.064;2024-01-07T00:21:09;99093.31;;;5.71;100.00
60240;BME280;46102;39.012;-7.064;2024-01-07T00:23:10;99091.66;;;5.65;100.00
60240;BME280;46102;39.012;-7.064;2024-01-07T00:25:10;99094.38;;;5.65;100.00
60240;BME280;46102;39.012;-7.064;2024-01-07T00:27:11;99098.50;;;5.68;100.00
60240;BME280;46102;39.012;-7.064;2024-01-07T00:29:12;99099.31;;;5.68;100.00
60240;BME280;46102;39.012;-7.064;2024-01-07T00:31:14;99105.00;;;5.67;100.00
60240;BME280;46102;39.012;-7.064;2024-01-07T00:33:15;99102.53;;;5.65;100.00
60240;BME280;46102;39.012;-7.064;2024-01-07T00:35:15;99099.56;;;5.67;100.00
60240;BME280;46102;39.012;-7.064;2024-01-07T00:37:16;99101.72;;;5.64;100.00
60240;BME280;46102;39.012;-7.064;2024-01-07T00:39:17;99093.56;;;5.64;100.00
60240;BME280;46102;39.012;-7.064;2024-01-07T00:41:18;99095.75;;;5.62;100.00
60240;BME280;46102;39.012;-7.064;2024-01-07T00:43:18;99090.31;;;5.62;100.00
60240;BME280;46102;39.012;-7.064;2024-01-07T00:45:19;99088.94;;;5.65;100.00
60240;BME280;46102;39.012;-7.064;2024-01-07T00:47:21;99096.28;;;5.64;100.00
60240;BME280;46102;39.012;-7.064;2024-01-07T00:49:21;99091.41;;;5.67;100.00
60240;BME280;46102;39.012;-7.064;2024-01-07T00:51:22;99086.75;;;5.67;100.00
60240;BME280;46102;39.012;-7.064;2024-01-07T00:53:23;99082.97;;;5.68;100.00
60240;BME280;46102;39.012;-7.064;2024-01-07T00:55:24;99092.75;;;5.69;100.00
60240;BME280;46102;39.012;-7.064;2024-01-07T00:57:24;99091.13;;;5.68;100.00
60240;BME280;46102;39.012;-7.064;2024-01-07T00:59:28;99081.31;;;5.62;100.00
60240;BME280;46102;39.012;-7.064;2024-01-07T01:01:29;99079.97;;;5.64;100.00
60240;BME280;46102;39.012;-7.064;2024-01-07T01:03:31;99081.06;;;5.63;100.00
60240;BME280;46102;39.012;-7.064;2024-01-07T01:05:31;99082.97;;;5.63;100.00
60240;BME280;46102;39.012;-7.064;2024-01-07T01:07:32;99081.31;;;5.62;100.00
60240;BME280;46102;39.012;-7.064;2024-01-07T01:09:33;99079.16;;;5.64;100.00
60240;BME280;46102;39.012;-7.064;2024-01-07T01:11:34;99084.84;;;5.62;100.00
60240;BME280;46102;39.012;-7.064;2024-01-07T01:13:35;99086.75;;;5.62;100.00
60240;BME280;46102;39.012;-7.064;2024-01-07T01:15:36;99085.66;;;5.58;100.00
60240;BME280;46102;39.012;-7.064;2024-01-07T01:17:37;99093.56;;;5.59;100.00
60240;BME280;46102;39.012;-7.064;2024-01-07T01:19:38;99092.47;;;5.55;100.00
60240;BME280;46102;39.012;-7.064;2024-01-07T01:21:39;99086.47;;;5.53;100.00
60240;BME280;46102;39.012;-7.064;2024-01-07T01:23:40;99098.47;;;5.47;100.00
60240;BME280;46102;39.012;-7.064;2024-01-07T01:25:40;99095.75;;;5.52;100.00
60240;BME280;46102;39.012;-7.064;2024-01-07T01:27:41;99095.47;;;5.49;100.00
60240;BME280;46102;39.012;-7.064;2024-01-07T01:29:42;99099.00;;;5.44;100.00
60240;BME280;46102;39.012;-7.064;2024-01-07T01:31:43;99105.53;;;5.43;100.00
60240;BME280;46102;39.012;-7.064;2024-01-07T01:33:44;99097.63;;;5.36;100.00
60240;BME280;46102;39.012;-7.064;2024-01-07T01:35:44;99087.00;;;5.35;100.00
60240;BME280;46102;39.012;-7.064;2024-01-07T01:37:45;99082.38;;;5.30;100.00
60240;BME280;46102;39.012;-7.064;2024-01-07T01:39:46;99079.13;;;5.28;100.00
60240;BME280;46102;39.012;-7.064;2024-01-07T01:41:48;99078.03;;;5.29;100.00
60240;BME280;46102;39.012;-7.064;2024-01-07T01:43:48;99074.50;;;5.34;100.00
60240;BME280;46102;39.012;-7.064;2024-01-07T01:45:49;99077.22;;;5.34;100.00
60240;BME280;46102;39.012;-7.064;2024-01-07T01:47:50;99072.06;;;5.32;100.00
60240;BME280;46102;39.012;-7.064;2024-01-07T01:49:51;99072.34;;;5.36;100.00
60240;BME280;46102;39.012;-7.064;2024-01-07T01:51:52;99067.41;;;5.28;100.00
60240;BME280;46102;39.012;-7.064;2024-01-07T01:53:54;99078.03;;;5.29;100.00
60240;BME280;46102;39.012;-7.064;2024-01-07T01:55:57;99071.50;;;5.25;100.00
60240;BME280;46102;39.012;-7.064;2024-01-07T01:58:00;99076.13;;;5.25;100.00
60240;BME280;46102;39.012;-7.064;2024-01-07T02:00:04;99074.22;;;5.25;100.00
60240;BME280;46102;39.012;-7.064;2024-01-07T02:02:06;99072.56;;;5.24;100.00
60240;BME280;46102;39.012;-7.064;2024-01-07T02:04:08;99066.88;;;5.26;100.00
60240;BME280;46102;39.012;-7.064;2024-01-07T02:06:09;99071.22;;;5.27;100.00
60240;BME280;46102;39.012;-7.064;2024-01-07T02:08:12;99067.41;;;5.33;100.00
60240;BME280;46102;39.012;-7.064;2024-01-07T02:10:13;99065.25;;;5.35;100.00
60240;BME280;46102;39.012;-7.064;2024-01-07T02:12:14;99066.59;;;5.37;100.00
60240;BME280;46102;39.012;-7.064;2024-01-07T02:14:15;99061.44;;;5.36;100.00
60240;BME280;46102;39.012;-7.064;2024-01-07T02:16:16;99068.53;;;5.37;100.00
60240;BME280;46102;39.012;-7.064;2024-01-07T02:18:17;99062.25;;;5.36;100.00
60240;BME280;46102;39.012;-7.064;2024-01-07T02:20:18;99071.78;;;5.39;100.00
60240;BME280;46102;39.012;-7.064;2024-01-07T02:22:19;99066.34;;;5.39;100.00
60240;BME280;46102;39.012;-7.064;2024-01-07T02:24:20;99070.69;;;5.40;100.00
60240;BME280;46102;39.012;-7.064;2024-01-07T02:26:20;99081.56;;;5.40;100.00
60240;BME280;46102;39.012;-7.064;2024-01-07T02:28:21;99076.13;;;5.40;100.00
60240;BME280;46102;39.012;-7.064;2024-01-07T02:30:22;99074.75;;;5.42;100.00
60240;BME280;46102;39.012;-7.064;2024-01-07T02:32:23;99075.59;;;5.43;100.00
60240;BME280;46102;39.012;-7.064;2024-01-07T02:34:24;99070.44;;;5.41;100.00
60240;BME280;46102;39.012;-7.064;2024-01-07T02:36:25;99077.78;;;5.36;100.00
60240;BME280;46102;39.012;-7.064;2024-01-07T02:38:26;99069.06;;;5.34;100.00
60240;BME280;46102;39.012;-7.064;2024-01-07T02:40:27;99070.97;;;5.38;100.00
60240;BME280;46102;39.012;-7.064;2024-01-07T02:42:28;99070.44;;;5.36;100.00
60240;BME280;46102;39.012;-7.064;2024-01-07T02:44:28;99069.88;;;5.34;100.00
60240;BME280;46102;39.012;-7.064;2024-01-07T02:46:30;99070.94;;;5.33;100.00
60240;BME280;46102;39.012;-7.064;2024-01-07T02:48:31;99075.59;;;5.33;100.00
60240;BME280;46102;39.012;-7.064;2024-01-07T02:50:32;99076.94;;;5.35;100.00
60240;BME280;46102;39.012;-7.064;2024-01-07T02:52:33;99078.31;;;5.33;100.00
60240;BME280;46102;39.012;-7.064;2024-01-07T02:54:34;99062.53;;;5.30;100.00
60240;BME280;46102;39.012;-7.064;2024-01-07T02:56:34;99076.69;;;5.32;100.00
60240;BME280;46102;39.012;-7.064;2024-01-07T02:58:35;99070.94;;;5.33;100.00
60240;BME280;46102;39.012;-7.064;2024-01-07T03:00:36;99075.06;;;5.36;100.00
60240;BME280;46102;39.012;-7.064;2024-01-07T03:02:37;99078.31;;;5.43;100.00
60240;BME280;46102;39.012;-7.064;2024-01-07T03:04:38;99075.59;;;5.48;100.00
60240;BME280;46102;39.012;-7.064;2024-01-07T03:06:38;99075.06;;;5.46;100.00
60240;BME280;46102;39.012;-7.064;2024-01-07T03:08:39;99070.69;;;5.40;100.00
60240;BME280;46102;39.012;-7.064;2024-01-07T03:10:40;99069.63;;;5.36;100.00
60240;BME280;46102;39.012;-7.064;2024-01-07T03:12:41;99075.06;;;5.36;100.00
60240;BME280;46102;39.012;-7.064;2024-01-07T03:14:42;99069.88;;;5.34;100.00
60240;BME280;46102;39.012;-7.064;2024-01-07T03:16:43;99063.34;;;5.35;100.00
60240;BME280;46102;39.012;-7.064;2024-01-07T03:18:43;99070.44;;;5.36;100.00
60240;BME280;46102;39.012;-7.064;2024-01-07T03:20:44;99067.16;;;5.39;100.00
60240;BME280;46102;39.012;-7.064;2024-01-07T03:22:45;99068.81;;;5.40;100.00
60240;BME280;46102;39.012;-7.064;2024-01-07T03:24:46;99076.13;;;5.40;100.00
60240;BME280;46102;39.012;-7.064;2024-01-07T03:26:47;99071.53;;;5.40;100.00
60240;BME280;46102;39.012;-7.064;2024-01-07T03:28:48;99069.63;;;5.41;100.00
60240;BME280;46102;39.012;-7.064;2024-01-07T03:30:49;99067.69;;;5.41;100.00
60240;BME280;46102;39.012;-7.064;2024-01-07T03:32:49;99070.69;;;5.40;100.00
60240;BME280;46102;39.012;-7.064;2024-01-07T03:34:50;99065.78;;;5.42;100.00
60240;BME280;46102;39.012;-7.064;2024-01-07T03:36:51;99068.00;;;5.45;100.00
60240;BME280;46102;39.012;-7.064;2024-01-07T03:38:52;99067.19;;;5.50;100.00
60240;BME280;46102;39.012;-7.064;2024-01-07T03:40:54;99068.53;;;5.52;100.00
60240;BME280;46102;39.012;-7.064;2024-01-07T03:42:55;99069.09;;;5.54;100.00
60240;BME280;46102;39.012;-7.064;2024-01-07T03:44:56;99061.16;;;5.58;100.00
60240;BME280;46102;39.012;-7.064;2024-01-07T03:46:56;99060.09;;;5.59;100.00
60240;BME280;46102;39.012;-7.064;2024-01-07T03:48:57;99058.19;;;5.59;100.00
60240;BME280;46102;39.012;-7.064;2024-01-07T03:50:58;99058.47;;;5.63;100.00
60240;BME280;46102;39.012;-7.064;2024-01-07T03:52:59;99064.97;;;5.67;100.00
60240;BME280;46102;39.012;-7.064;2024-01-07T03:54:59;99059.81;;;5.71;100.00
60240;BME280;46102;39.012;-7.064;2024-01-07T03:57:01;99054.13;;;5.72;100.00
60240;BME280;46102;39.012;-7.064;2024-01-07T03:59:01;99056.00;;;5.72;100.00
60240;BME280;46102;39.012;-7.064;2024-01-07T04:01:02;99051.94;;;5.74;100.00
60240;BME280;46102;39.012;-7.064;2024-01-07T04:03:03;99046.75;;;5.78;100.00
60240;BME280;46102;39.012;-7.064;2024-01-07T04:05:04;99043.47;;;5.76;100.00
60240;BME280;46102;39.012;-7.064;2024-01-07T04:07:05;99046.75;;;5.78;100.00
60240;BME280;46102;39.012;-7.064;2024-01-07T04:09:06;99041.84;;;5.80;100.00
60240;BME280;46102;39.012;-7.064;2024-01-07T04:11:08;99045.09;;;5.82;100.00
60240;BME280;46102;39.012;-7.064;2024-01-07T04:13:09;99051.09;;;5.74;100.00
60240;BME280;46102;39.012;-7.064;2024-01-07T04:15:11;99059.28;;;5.63;100.00
60240;BME280;46102;39.012;-7.064;2024-01-07T04:17:12;99051.09;;;5.48;100.00
60240;BME280;46102;39.012;-7.064;2024-01-07T04:19:13;99059.81;;;5.40;100.00
60240;BME280;46102;39.012;-7.064;2024-01-07T04:21:14;99056.53;;;5.38;100.00
60240;BME280;46102;39.012;-7.064;2024-01-07T04:23:15;99054.06;;;5.31;100.00
60240;BME280;46102;39.012;-7.064;2024-01-07T04:25:16;99056.53;;;5.22;100.00
60240;BME280;46102;39.012;-7.064;2024-01-07T04:27:16;99064.66;;;5.17;100.00
60240;BME280;46102;39.012;-7.064;2024-01-07T04:29:17;99066.03;;;5.15;100.00
60240;BME280;46102;39.012;-7.064;2024-01-07T04:31:18;99056.25;;;5.14;100.00
60240;BME280;46102;39.012;-7.064;2024-01-07T04:33:19;99064.94;;;5.11;100.00
60240;BME280;46102;39.012;-7.064;2024-01-07T04:35:19;99064.91;;;5.06;100.00
60240;BME280;46102;39.012;-7.064;2024-01-07T04:37:20;99070.09;;;5.07;100.00
60240;BME280;46102;39.012;-7.064;2024-01-07T04:39:21;99068.75;;;5.05;100.00
60240;BME280;46102;39.012;-7.064;2024-01-07T04:41:23;99075.78;;;5.00;100.00
60240;BME280;46102;39.012;-7.064;2024-01-07T04:43:24;99071.97;;;5.01;100.00
60240;BME280;46102;39.012;-7.064;2024-01-07T04:45:24;99075.78;;;4.95;100.00
60240;BME280;46102;39.012;-7.064;2024-01-07T04:47:28;99074.94;;;4.85;100.00
60240;BME280;46102;39.012;-7.064;2024-01-07T04:49:29;99071.09;;;4.75;100.00
60240;BME280;46102;39.012;-7.064;2024-01-07T04:51:30;99064.53;;;4.66;100.00
60240;BME280;46102;39.012;-7.064;2024-01-07T04:53:31;99056.88;;;4.58;100.00
60240;BME280;46102;39.012;-7.064;2024-01-07T04:55:32;99050.09;;;4.55;100.00
60240;BME280;46102;39.012;-7.064;2024-01-07T04:57:32;99054.16;;;4.58;100.00
60240;BME280;46102;39.012;-7.064;2024-01-07T04:59:33;99046.03;;;4.63;100.00
60240;BME280;46102;39.012;-7.064;2024-01-07T05:01:34;99044.69;;;4.66;100.00
60240;BME280;46102;39.012;-7.064;2024-01-07T05:03:35;99040.88;;;4.67;100.00
60240;BME280;46102;39.012;-7.064;2024-01-07T05:05:38;99043.06;;;4.70;100.00
60240;BME280;46102;39.012;-7.064;2024-01-07T05:07:39;99036.56;;;4.76;100.00
60240;BME280;46102;39.012;-7.064;2024-01-07T05:09:40;99036.31;;;4.77;100.00
60240;BME280;46102;39.012;-7.064;2024-01-07T05:11:40;99033.59;;;4.83;100.00
60240;BME280;46102;39.012;-7.064;2024-01-07T05:13:41;99034.16;;;4.85;100.00
60240;BME280;46102;39.012;-7.064;2024-01-07T05:15:42;99033.34;;;4.84;100.00
60240;BME280;46102;39.012;-7.064;2024-01-07T05:17:43;99029.78;;;4.84;100.00
60240;BME280;46102;39.012;-7.064;2024-01-07T05:19:43;99039.59;;;4.85;100.00
60240;BME280;46102;39.012;-7.064;2024-01-07T05:21:44;99035.78;;;4.91;100.00
60240;BME280;46102;39.012;-7.064;2024-01-07T05:23:45;99039.59;;;4.95;100.00
60240;BME280;46102;39.012;-7.064;2024-01-07T05:25:46;99029.81;;;4.89;100.00
60240;BME280;46102;39.012;-7.064;2024-01-07T05:27:46;99028.72;;;4.85;100.00
60240;BME280;46102;39.012;-7.064;2024-01-07T05:29:47;99032.78;;;4.82;100.00
60240;BME280;46102;39.012;-7.064;2024-01-07T05:31:48;99034.66;;;4.76;100.00
60240;BME280;46102;39.012;-7.064;2024-01-07T05:33:49;99035.75;;;4.75;100.00
60240;BME280;46102;39.012;-7.064;2024-01-07T05:35:49;99041.19;;;4.75;100.00
60240;BME280;46102;39.012;-7.064;2024-01-07T05:37:50;99036.03;;;4.79;100.00
60240;BME280;46102;39.012;-7.064;2024-01-07T05:39:51;99039.59;;;4.85;100.00
60240;BME280;46102;39.012;-7.064;2024-01-07T05:41:52;99036.06;;;4.89;100.00
60240;BME280;46102;39.012;-7.064;2024-01-07T05:43:52;99030.09;;;4.92;100.00
60240;BME280;46102;39.012;-7.064;2024-01-07T05:45:53;99037.44;;;4.97;100.00
60240;BME280;46102;39.012;-7.064;2024-01-07T05:47:54;99030.09;;;4.97;100.00
60240;BME280;46102;39.012;-7.064;2024-01-07T05:49:55;99029.28;;;4.92;100.00
60240;BME280;46102;39.012;-7.064;2024-01-07T05:51:56;99027.91;;;4.84;100.00
60240;BME280;46102;39.012;-7.064;2024-01-07T05:53:56;99033.03;;;4.80;100.00
60240;BME280;46102;39.012;-7.064;2024-01-07T05:55:57;99039.28;;;4.81;100.00
60240;BME280;46102;39.012;-7.064;2024-01-07T05:58:00;99046.09;;;4.78;100.00
60240;BME280;46102;39.012;-7.064;2024-01-07T06:00:01;99049.63;;;4.79;100.00
60240;BME280;46102;39.012;-7.064;2024-01-07T06:02:01;99044.72;;;4.76;100.00
60240;BME280;46102;39.012;-7.064;2024-01-07T06:04:02;99047.69;;;4.69;100.00
60240;BME280;46102;39.012;-7.064;2024-01-07T06:06:03;99056.91;;;4.63;100.00
60240;BME280;46102;39.012;-7.064;2024-01-07T06:08:04;99056.63;;;4.59;100.00
60240;BME280;46102;39.012;-7.064;2024-01-07T06:10:06;99063.38;;;4.57;100.00
60240;BME280;46102;39.012;-7.064;2024-01-07T06:12:07;99066.09;;;4.52;100.00
60240;BME280;46102;39.012;-7.064;2024-01-07T06:14:07;99065.53;;;4.50;100.00
60240;BME280;46102;39.012;-7.064;2024-01-07T06:16:08;99063.38;;;4.47;100.00
60240;BME280;46102;39.012;-7.064;2024-01-07T06:18:09;99067.16;;;4.46;100.00
60240;BME280;46102;39.012;-7.064;2024-01-07T06:20:10;99078.28;;;4.44;100.00
60240;BME280;46102;39.012;-7.064;2024-01-07T06:22:11;99083.44;;;4.46;100.00
60240;BME280;46102;39.012;-7.064;2024-01-07T06:24:12;99084.84;;;4.48;100.00
60240;BME280;46102;39.012;-7.064;2024-01-07T06:26:13;99080.72;;;4.46;100.00
60240;BME280;46102;39.012;-7.064;2024-01-07T06:28:13;99086.69;;;4.43;100.00
60240;BME280;46102;39.012;-7.064;2024-01-07T06:30:14;99086.69;;;4.37;100.00
60240;BME280;46102;39.012;-7.064;2024-01-07T06:32:17;99081.22;;;4.32;100.00
60240;BME280;46102;39.012;-7.064;2024-01-07T06:34:18;99084.19;;;4.31;100.00
60240;BME280;46102;39.012;-7.064;2024-01-07T06:36:18;99083.34;;;4.25;100.00
60240;BME280;46102;39.012;-7.064;2024-01-07T06:38:19;99087.13;;;4.19;100.00
60240;BME280;46102;39.012;-7.064;2024-01-07T06:40:20;99085.44;;;4.13;100.00
60240;BME280;46102;39.012;-7.064;2024-01-07T06:42:21;99085.44;;;4.13;100.00
60240;BME280;46102;39.012;-7.064;2024-01-07T06:44:21;99083.28;;;4.10;100.00
60240;BME280;46102;39.012;-7.064;2024-01-07T06:46:22;99085.69;;;4.06;100.00
60240;BME280;46102;39.012;-7.064;2024-01-07T06:48:23;99078.56;;;4.00;100.00
60240;BME280;46102;39.012;-7.064;2024-01-07T06:50:24;99085.59;;;3.96;100.00
60240;BME280;46102;39.012;-7.064;2024-01-07T06:52:24;99081.78;;;3.92;100.00
60240;BME280;46102;39.012;-7.064;2024-01-07T06:54:25;99087.22;;;3.92;100.00
60240;BME280;46102;39.012;-7.064;2024-01-07T06:56:26;99087.47;;;3.90;100.00
60240;BME280;46102;39.012;-7.064;2024-01-07T06:58:27;99093.72;;;3.91;100.00
60240;BME280;46102;39.012;-7.064;2024-01-07T07:00:27;99092.09;;;3.90;100.00
60240;BME280;46102;39.012;-7.064;2024-01-07T07:02:28;99096.44;;;3.91;100.00
60240;BME280;46102;39.012;-7.064;2024-01-07T07:04:29;99093.16;;;3.89;100.00
60240;BME280;46102;39.012;-7.064;2024-01-07T07:06:30;99088.25;;;3.86;100.00
60240;BME280;46102;39.012;-7.064;2024-01-07T07:08:30;99106.94;;;3.82;100.00
60240;BME280;46102;39.012;-7.064;2024-01-07T07:10:31;99103.72;;;3.85;100.00
60240;BME280;46102;39.012;-7.064;2024-01-07T07:12:32;99100.47;;;3.88;100.00
60240;BME280;46102;39.012;-7.064;2024-01-07T07:14:33;99102.63;;;3.86;100.00
60240;BME280;46102;39.012;-7.064;2024-01-07T07:16:34;99102.84;;;3.80;100.00
60240;BME280;46102;39.012;-7.064;2024-01-07T07:18:34;99109.06;;;3.75;100.00
60240;BME280;46102;39.012;-7.064;2024-01-07T07:20:35;99104.44;;;3.75;100.00
60240;BME280;46102;39.012;-7.064;2024-01-07T07:22:36;99102.84;;;3.80;100.00
60240;BME280;46102;39.012;-7.064;2024-01-07T07:24:40;99113.72;;;3.80;100.00
60240;BME280;46102;39.012;-7.064;2024-01-07T07:26:42;99112.09;;;3.79;100.00
60240;BME280;46102;39.012;-7.064;2024-01-07T07:28:42;99111.00;;;3.80;100.00
60240;BME280;46102;39.012;-7.064;2024-01-07T07:30:43;99115.09;;;3.82;100.00
60240;BME280;46102;39.012;-7.064;2024-01-07T07:32:45;99121.88;;;3.85;100.00
60240;BME280;46102;39.012;-7.064;2024-01-07T07:34:46;99128.09;;;3.80;100.00
60240;BME280;46102;39.012;-7.064;2024-01-07T07:36:47;99116.41;;;3.74;100.00
60240;BME280;46102;39.012;-7.064;2024-01-07T07:38:48;99123.72;;;3.74;100.00
60240;BME280;46102;39.012;-7.064;2024-01-07T07:40:49;99122.31;;;3.71;100.00
60240;BME280;46102;39.012;-7.064;2024-01-07T07:42:53;99123.09;;;3.67;100.00
60240;BME280;46102;39.012;-7.064;2024-01-07T07:44:53;99129.63;;;3.66;100.00
60240;BME280;46102;39.012;-7.064;2024-01-07T07:46:54;99124.75;;;3.68;100.00
60240;BME280;46102;39.012;-7.064;2024-01-07T07:48:55;99134.88;;;3.78;100.00
60240;BME280;46102;39.012;-7.064;2024-01-07T07:50:56;99131.91;;;3.79;100.00
60240;BME280;46102;39.012;-7.064;2024-01-07T07:52:56;99134.88;;;3.78;100.00
60240;BME280;46102;39.012;-7.064;2024-01-07T07:54:57;99136.19;;;3.75;100.00
60240;BME280;46102;39.012;-7.064;2024-01-07T07:56:59;99136.44;;;3.73;100.00
60240;BME280;46102;39.012;-7.064;2024-01-07T07:58:59;99149.25;;;3.78;100.00
60240;BME280;46102;39.012;-7.064;2024-01-07T08:01:00;99151.50;;;3.86;100.00
60240;BME280;46102;39.012;-7.064;2024-01-07T08:03:01;99155.88;;;3.87;100.00
60240;BME280;46102;39.012;-7.064;2024-01-07T08:05:02;99156.41;;;3.89;100.00
60240;BME280;46102;39.012;-7.064;2024-01-07T08:07:02;99152.09;;;3.93;100.00
60240;BME280;46102;39.012;-7.064;2024-01-07T08:09:03;99154.88;;;3.99;100.00
60240;BME280;46102;39.012;-7.064;2024-01-07T08:11:04;99158.75;;;4.08;100.00
60240;BME280;46102;39.012;-7.064;2024-01-07T08:13:08;99157.13;;;4.12;100.00
60240;BME280;46102;39.012;-7.064;2024-01-07T08:15:09;99159.06;;;4.16;100.00
60240;BME280;46102;39.012;-7.064;2024-01-07T08:17:10;99152.88;;;4.21;100.00
60240;BME280;46102;39.012;-7.064;2024-01-07T08:19:11;99148.81;;;4.24;100.00
60240;BME280;46102;39.012;-7.064;2024-01-07T08:21:12;99160.53;;;4.34;100.00
60240;BME280;46102;39.012;-7.064;2024-01-07T08:23:12;99155.78;;;4.52;100.00
60240;BME280;46102;39.012;-7.064;2024-01-07T08:25:13;99148.91;;;4.97;100.00
60240;BME280;46102;39.012;-7.064;2024-01-07T08:27:14;99145.84;;;5.56;100.00
60240;BME280;46102;39.012;-7.064;2024-01-07T08:29:15;99145.34;;;6.21;100.00
60240;BME280;46102;39.012;-7.064;2024-01-07T08:31:15;99149.06;;;6.66;100.00
60240;BME280;46102;39.012;-7.064;2024-01-07T08:33:16;99142.09;;;7.59;100.00
60240;BME280;46102;39.012;-7.064;2024-01-07T08:35:17;99146.53;;;9.63;100.00
60240;BME280;46102;39.012;-7.064;2024-01-07T08:37:18;99139.16;;;11.67;100.00
60240;BME280;46102;39.012;-7.064;2024-01-07T08:39:19;99145.16;;;13.48;81.37
60240;BME280;46102;39.012;-7.064;2024-01-07T08:41:20;99141.69;;;14.65;66.45
60240;BME280;46102;39.012;-7.064;2024-01-07T08:43:21;99144.88;;;14.84;62.08
60240;BME280;46102;39.012;-7.064;2024-01-07T08:45:22;99154.09;;;14.06;62.37
60240;BME280;46102;39.012;-7.064;2024-01-07T08:47:23;99157.66;;;12.97;67.03
60240;BME280;46102;39.012;-7.064;2024-01-07T08:49:23;99166.28;;;11.97;74.73
60240;BME280;46102;39.012;-7.064;2024-01-07T08:51:24;99170.41;;;11.21;82.80
60240;BME280;46102;39.012;-7.064;2024-01-07T08:53:25;99175.06;;;10.66;88.64
60240;BME280;46102;39.012;-7.064;2024-01-07T08:55:26;99183.66;;;10.26;93.10
60240;BME280;46102;39.012;-7.064;2024-01-07T08:57:27;99184.44;;;9.94;97.70
60240;BME280;46102;39.012;-7.064;2024-01-07T08:59:28;99192.00;;;9.64;100.00
60240;BME280;46102;39.012;-7.064;2024-01-07T09:01:29;99188.94;;;9.47;100.00
60240;BME280;46102;39.012;-7.064;2024-01-07T09:03:30;99180.75;;;9.47;100.00
60240;BME280;46102;39.012;-7.064;2024-01-07T09:05:31;99178.44;;;9.54;100.00
60240;BME280;46102;39.012;-7.064;2024-01-07T09:07:32;99180.81;;;9.61;100.00
60240;BME280;46102;39.012;-7.064;2024-01-07T09:09:32;99184.00;;;9.68;100.00
60240;BME280;46102;39.012;-7.064;2024-01-07T09:11:33;99180.38;;;9.72;100.00
60240;BME280;46102;39.012;-7.064;2024-01-07T09:13:34;99183.34;;;9.76;100.00
60240;BME280;46102;39.012;-7.064;2024-01-07T09:15:35;99179.09;;;9.84;100.00
60240;BME280;46102;39.012;-7.064;2024-01-07T09:17:36;99184.72;;;9.92;100.00
60240;BME280;46102;39.012;-7.064;2024-01-07T09:19:39;99180.53;;;10.00;100.00
60240;BME280;46102;39.012;-7.064;2024-01-07T09:21:40;99184.41;;;10.13;100.00
60240;BME280;46102;39.012;-7.064;2024-01-07T09:23:41;99184.78;;;10.25;100.00
60240;BME280;46102;39.012;-7.064;2024-01-07T09:25:42;99191.44;;;10.38;100.00
60240;BME280;46102;39.012;-7.064;2024-01-07T09:27:43;99185.41;;;10.55;97.41
60240;BME280;46102;39.012;-7.064;2024-01-07T09:29:44;99193.63;;;10.55;100.00
60240;BME280;46102;39.012;-7.064;2024-01-07T09:31:45;99198.31;;;10.54;100.00
60240;BME280;46102;39.012;-7.064;2024-01-07T09:33:45;99204.22;;;10.61;100.00
60240;BME280;46102;39.012;-7.064;2024-01-07T09:35:46;99209.09;;;10.78;100.00
60240;BME280;46102;39.012;-7.064;2024-01-07T09:37:47;99206.81;;;10.99;100.00
60240;BME280;46102;39.012;-7.064;2024-01-07T09:39:48;99207.44;;;11.10;100.00
60240;BME280;46102;39.012;-7.064;2024-01-07T09:41:49;99200.28;;;11.23;100.00
60240;BME280;46102;39.012;-7.064;2024-01-07T09:43:51;99206.09;;;11.35;97.93
60240;BME280;46102;39.012;-7.064;2024-01-07T09:45:53;99203.13;;;11.45;100.00
60240;BME280;46102;39.012;-7.064;2024-01-07T09:47:54;99205.66;;;11.56;99.61
60240;BME280;46102;39.012;-7.064;2024-01-07T09:49:55;99206.88;;;11.63;98.46
60240;BME280;46102;39.012;-7.064;2024-01-07T09:51:59;99194.22;;;11.76;95.02
60240;BME280;46102;39.012;-7.064;2024-01-07T09:54:03;99195.91;;;11.86;93.10
60240;BME280;46102;39.012;-7.064;2024-01-07T09:58:11;99198.34;;;12.01;91.18
60240;BME280;46102;39.012;-7.064;2024-01-07T10:00:12;99205.03;;;12.09;90.24
60240;BME280;46102;39.012;-7.064;2024-01-07T10:02:15;99214.13;;;12.32;86.35
60240;BME280;46102;39.012;-7.064;2024-01-07T10:04:16;99204.41;;;12.57;84.99
60240;BME280;46102;39.012;-7.064;2024-01-07T10:06:20;99212.72;;;12.66;80.80
60240;BME280;46102;39.012;-7.064;2024-01-07T10:08:21;99211.78;;;12.70;79.54
60240;BME280;46102;39.012;-7.064;2024-01-07T10:10:22;99221.00;;;12.97;76.08
60240;BME280;46102;39.012;-7.064;2024-01-07T10:12:23;99221.34;;;13.36;72.84
60240;BME280;46102;39.012;-7.064;2024-01-07T10:14:24;99225.63;;;13.68;71.81
60240;BME280;46102;39.012;-7.064;2024-01-07T10:16:26;99229.03;;;13.82;70.99
60240;BME280;46102;39.012;-7.064;2024-01-07T10:18:27;99227.72;;;13.53;69.90
60240;BME280;46102;39.012;-7.064;2024-01-07T10:20:32;99228.03;;;13.61;71.17
60240;BME280;46102;39.012;-7.064;2024-01-07T10:22:34;99230.81;;;13.87;70.40
60240;BME280;46102;39.012;-7.064;2024-01-07T10:24:36;99233.63;;;14.04;69.80
60240;BME280;46102;39.012;-7.064;2024-01-07T10:26:40;99237.53;;;14.12;68.92
60240;BME280;46102;39.012;-7.064;2024-01-07T10:28:41;99225.34;;;14.13;68.22
60240;BME280;46102;39.012;-7.064;2024-01-07T10:30:50;99235.38;;;13.91;70.49
60240;BME280;46102;39.012;-7.064;2024-01-07T10:32:56;99229.22;;;13.86;73.01
60240;BME280;46102;39.012;-7.064;2024-01-07T10:35:02;99219.81;;;13.95;73.79